Time;durP1;ratioP1;P1;durP2;ratioP2;P2;SDS_P1;SDS_P2;PMS_P1;PMS_P2;Temp;Humidity;BMP_temperature;BMP_pressure;BME280_temperature;BME280_humidity;BME280_pressure;Samples;Min_cycle;Max_cycle;Signal;HPM_P1;HPM_P2
2023/11/02 00:00:34;;;;;;;4.30;2.25;;;;;;;-145.87;100.00;54973.53;2090507;28;20057;-59
2023/11/02 00:01:35;;;;;;;3.60;1.90;;;;;;;-145.87;100.00;54973.53;2091354;28;20608;-59
2023/11/02 00:02:36;;;;;;;4.43;2.30;;;;;;;-145.87;100.00;54973.53;2090841;28;20053;-58
2023/11/02 00:03:39;;;;;;;3.90;1.67;;;;;;;-145.87;100.00;54973.53;2091226;28;20036;-58
2023/11/02 00:04:40;;;;;;;4.20;1.60;;;;;;;-145.87;100.00;54973.53;2090596;28;20056;-57
2023/11/02 00:05:53;;;;;;;7.07;2.20;;;;;;;-145.87;100.00;54973.53;2090826;28;20388;-58
2023/11/02 00:06:55;;;;;;;2.67;1.70;;;;;;;-145.87;100.00;54973.53;2091009;28;20045;-60
2023/11/02 00:07:56;;;;;;;4.30;2.05;;;;;;;-145.87;100.00;54973.53;2091317;28;20075;-59
2023/11/02 00:09:04;;;;;;;3.58;2.00;;;;;;;-145.87;100.00;54973.53;2091740;28;20048;-59
2023/11/02 00:10:05;;;;;;;2.53;1.60;;;;;;;-145.87;100.00;54973.53;2091597;28;20049;-58
2023/11/02 00:11:06;;;;;;;3.08;1.73;;;;;;;-145.87;100.00;54973.53;2091050;28;20044;-58
2023/11/02 00:12:11;;;;;;;7.82;2.60;;;;;;;-145.87;100.00;54973.53;2090906;28;20041;-59
2023/11/02 00:13:17;;;;;;;5.55;2.08;;;;;;;-145.87;100.00;54973.53;2091157;28;20053;-58
2023/11/02 00:14:19;;;;;;;3.45;2.00;;;;;;;-145.87;100.00;54973.53;2091506;28;20053;-58
2023/11/02 00:15:21;;;;;;;3.67;2.10;;;;;;;-145.87;100.00;54973.53;2091584;28;20135;-58
2023/11/02 00:16:22;;;;;;;6.55;2.00;;;;;;;-145.87;100.00;54973.53;2082256;28;20057;-59
2023/11/02 00:17:36;;;;;;;3.40;2.00;;;;;;;-145.87;100.00;54973.53;2082929;28;20053;-58
2023/11/02 00:18:38;;;;;;;5.25;2.30;;;;;;;-145.87;100.00;54973.53;2091853;28;20033;-58
2023/11/02 00:19:39;;;;;;;3.35;1.92;;;;;;;-145.87;100.00;54973.53;2091120;28;20049;-58
2023/11/02 00:20:40;;;;;;;2.63;1.63;;;;;;;-145.87;100.00;54973.53;2091477;28;20053;-58
2023/11/02 00:21:42;;;;;;;5.35;2.13;;;;;;;-145.87;100.00;54973.53;2091113;28;20053;-58
2023/11/02 00:22:44;;;;;;;4.82;2.05;;;;;;;-145.87;100.00;54973.53;2091236;28;20048;-59
2023/11/02 00:23:46;;;;;;;3.40;1.75;;;;;;;-145.87;100.00;54973.53;2091821;28;20049;-58
2023/11/02 00:24:49;;;;;;;3.67;1.88;;;;;;;-145.87;100.00;54973.53;2082599;28;20457;-58
2023/11/02 00:25:55;;;;;;;6.18;2.20;;;;;;;-145.87;100.00;54973.53;2083059;28;20037;-58
2023/11/02 00:26:56;;;;;;;4.95;2.05;;;;;;;-145.87;100.00;54973.53;2091365;28;20385;-58
2023/11/02 00:27:57;;;;;;;4.18;1.60;;;;;;;-145.87;100.00;54973.53;2091311;28;20069;-58
2023/11/02 00:28:59;;;;;;;3.17;1.83;;;;;;;-145.87;100.00;54973.53;2091026;28;20060;-58
2023/11/02 00:30:00;;;;;;;4.20;2.05;;;;;;;-145.87;100.00;54973.53;2091430;28;20049;-59
2023/11/02 00:31:01;;;;;;;4.22;2.03;;;;;;;-145.87;100.00;54973.53;2091216;28;20389;-58
2023/11/02 00:32:03;;;;;;;3.95;2.03;;;;;;;-145.87;100.00;54973.53;2091366;28;20056;-58
2023/11/02 00:33:04;;;;;;;5.03;2.00;;;;;;;-145.87;100.00;54973.53;2090978;28;20053;-58
2023/11/02 00:34:07;;;;;;;5.60;2.25;;;;;;;-145.87;100.00;54973.53;2091067;28;20057;-59
2023/11/02 00:35:08;;;;;;;4.03;1.88;;;;;;;-145.87;100.00;54973.53;2090602;28;20053;-59
2023/11/02 00:36:11;;;;;;;5.65;2.38;;;;;;;-145.87;100.00;54973.53;2091035;28;20064;-58
2023/11/02 00:37:12;;;;;;;3.65;1.98;;;;;;;-145.87;100.00;54973.53;2090626;28;20055;-58
2023/11/02 00:38:17;;;;;;;4.47;2.00;;;;;;;-145.87;100.00;54973.53;2090776;28;20044;-58
2023/11/02 00:39:19;;;;;;;4.07;1.85;;;;;;;-145.87;100.00;54973.53;2091184;28;20053;-59
2023/11/02 00:40:20;;;;;;;4.65;2.30;;;;;;;-145.87;100.00;54973.53;2091367;28;20048;-58
2023/11/02 00:41:21;;;;;;;5.20;2.13;;;;;;;-145.87;100.00;54973.53;2090992;28;20049;-58
2023/11/02 00:42:23;;;;;;;4.45;2.55;;;;;;;-145.87;100.00;54973.53;2090676;28;20048;-58
2023/11/02 00:43:24;;;;;;;5.03;2.38;;;;;;;-145.87;100.00;54973.53;2090332;28;20439;-58
2023/11/02 00:44:26;;;;;;;3.78;2.50;;;;;;;-145.87;100.00;54973.53;2090658;28;20056;-59
2023/11/02 00:45:27;;;;;;;4.63;2.25;;;;;;;-145.87;100.00;54973.53;2082570;28;20045;-58
2023/11/02 00:46:28;;;;;;;4.15;2.42;;;;;;;-145.87;100.00;54973.53;2058812;28;20061;-59
2023/11/02 00:47:29;;;;;;;4.25;2.63;;;;;;;-145.87;100.00;54973.53;2074253;28;20410;-59
2023/11/02 00:48:33;;;;;;;5.75;2.53;;;;;;;-145.87;100.00;54973.53;2091638;28;20041;-58
2023/11/02 00:49:35;;;;;;;4.47;2.40;;;;;;;-145.87;100.00;54973.53;2090781;28;20083;-58
2023/11/02 00:51:01;;;;;;;4.68;2.30;;;;;;;-145.87;100.00;54973.53;2090660;28;20421;-59
2023/11/02 00:52:03;;;;;;;3.97;2.30;;;;;;;-145.87;100.00;54973.53;2085654;28;20472;-58
2023/11/02 00:53:05;;;;;;;5.15;2.35;;;;;;;-145.87;100.00;54973.53;2090019;28;20437;-59
2023/11/02 00:54:06;;;;;;;3.65;1.90;;;;;;;-145.87;100.00;54973.53;2082348;28;20403;-59
2023/11/02 00:55:42;;;;;;;3.63;2.05;;;;;;;-145.87;100.00;54973.53;2074491;28;20053;-59
2023/11/02 00:56:43;;;;;;;4.60;2.30;;;;;;;-145.87;100.00;54973.53;2086664;28;20425;-58
2023/11/02 00:57:45;;;;;;;3.85;2.33;;;;;;;-145.87;100.00;54973.53;2077043;28;20041;-58
2023/11/02 00:58:48;;;;;;;5.45;2.38;;;;;;;-145.87;100.00;54973.53;2073706;28;20470;-59
2023/11/02 00:59:51;;;;;;;6.88;2.35;;;;;;;-145.87;100.00;54973.53;2090246;28;20108;-57
2023/11/02 01:00:52;;;;;;;4.75;2.58;;;;;;;-145.87;100.00;54973.53;2090890;28;20053;-57
2023/11/02 01:01:55;;;;;;;5.88;2.50;;;;;;;-145.87;100.00;54973.53;2091160;28;20416;-58
2023/11/02 01:02:56;;;;;;;3.25;2.13;;;;;;;-145.87;100.00;54973.53;2082062;28;20049;-57
2023/11/02 01:04:02;;;;;;;4.43;2.10;;;;;;;-145.87;100.00;54973.53;2081621;28;20397;-58
2023/11/02 01:05:04;;;;;;;2.85;1.75;;;;;;;-145.87;100.00;54973.53;2089615;28;20041;-56
2023/11/02 01:06:14;;;;;;;3.60;2.10;;;;;;;-145.87;100.00;54973.53;2090632;28;20045;-57
2023/11/02 01:07:15;;;;;;;4.47;2.50;;;;;;;-145.87;100.00;54973.53;2090792;28;20112;-57
2023/11/02 01:08:16;;;;;;;3.85;2.55;;;;;;;-145.87;100.00;54973.53;2073932;28;20053;-57
2023/11/02 01:09:17;;;;;;;3.60;2.40;;;;;;;-145.87;100.00;54973.53;2073362;28;20054;-57
2023/11/02 01:10:19;;;;;;;4.20;2.33;;;;;;;-145.87;100.00;54973.53;2090637;28;20046;-57
2023/11/02 01:11:28;;;;;;;6.35;2.53;;;;;;;-145.87;100.00;54973.53;2073998;28;20052;-57
2023/11/02 01:12:36;;;;;;;3.53;2.22;;;;;;;-145.87;100.00;54973.53;2083527;28;20069;-58
2023/11/02 01:13:37;;;;;;;4.93;2.40;;;;;;;-145.87;100.00;54973.53;2090060;28;20051;-59
2023/11/02 01:14:48;;;;;;;3.30;2.10;;;;;;;-145.87;100.00;54973.53;2082047;28;20053;-58
2023/11/02 01:16:05;;;;;;;4.93;2.95;;;;;;;-145.87;100.00;54973.53;2090332;28;20041;-57
2023/11/02 01:17:07;;;;;;;4.18;2.30;;;;;;;-145.87;100.00;54973.53;2090787;28;20045;-59
2023/11/02 01:18:11;;;;;;;4.15;2.15;;;;;;;-145.87;100.00;54973.53;2091334;28;20382;-59
2023/11/02 01:19:35;;;;;;;4.15;2.50;;;;;;;-145.87;100.00;54973.53;2091087;28;20071;-58
2023/11/02 01:20:39;;;;;;;4.97;2.00;;;;;;;-145.87;100.00;54973.53;2090502;28;20147;-58
2023/11/02 01:21:40;;;;;;;5.80;2.47;;;;;;;-145.87;100.00;54973.53;2090395;28;20049;-59
2023/11/02 01:22:52;;;;;;;4.60;2.20;;;;;;;-145.87;100.00;54973.53;2082074;28;20045;-57
2023/11/02 01:24:02;;;;;;;4.03;2.30;;;;;;;-145.87;100.00;54973.53;2083796;28;20049;-57
2023/11/02 01:25:09;;;;;;;4.53;2.30;;;;;;;-145.87;100.00;54973.53;2090374;28;20369;-57
2023/11/02 01:26:39;;;;;;;3.95;2.42;;;;;;;-145.87;100.00;54973.53;2090979;28;20053;-58
2023/11/02 01:27:40;;;;;;;5.18;2.35;;;;;;;-145.87;100.00;54973.53;2082216;28;20042;-57
2023/11/02 01:28:53;;;;;;;5.63;2.65;;;;;;;-145.87;100.00;54973.53;2082067;28;20049;-57
2023/11/02 01:29:54;;;;;;;4.38;2.30;;;;;;;-145.87;100.00;54973.53;2089740;28;20123;-59
2023/11/02 01:31:25;;;;;;;3.53;2.25;;;;;;;-145.87;100.00;54973.53;2081754;28;20049;-59
2023/11/02 01:32:26;;;;;;;4.57;1.98;;;;;;;-145.87;100.00;54973.53;2076992;28;20052;-58
2023/11/02 01:33:33;;;;;;;3.85;2.38;;;;;;;-145.87;100.00;54973.53;2089721;28;20069;-58
2023/11/02 01:34:34;;;;;;;4.43;2.60;;;;;;;-145.87;100.00;54973.53;2090525;28;20045;-58
2023/11/02 01:35:43;;;;;;;5.80;2.50;;;;;;;-145.87;100.00;54973.53;2081811;28;20053;-59
2023/11/02 01:36:44;;;;;;;5.13;2.58;;;;;;;-145.87;100.00;54973.53;2083290;28;20071;-59
2023/11/02 01:37:45;;;;;;;5.18;2.47;;;;;;;-145.87;100.00;54973.53;2089602;28;20060;-61
2023/11/02 01:38:46;;;;;;;9.80;3.10;;;;;;;-145.87;100.00;54973.53;2073570;28;20505;-58
2023/11/02 01:40:25;;;;;;;5.38;2.70;;;;;;;-145.87;100.00;54973.53;2073396;28;20045;-58
2023/11/02 01:41:34;;;;;;;;;;;;;;;-145.87;100.00;54973.53;2079120;28;20045;-59
2023/11/02 01:42:42;;;;;;;3.65;2.05;;;;;;;-145.87;100.00;54973.53;2071875;28;19921;-58
2023/11/02 01:43:47;;;;;;;3.67;2.28;;;;;;;-145.87;100.00;54973.53;2083301;28;20056;-59
2023/11/02 01:44:55;;;;;;;5.03;2.95;;;;;;;-145.87;100.00;54973.53;2081740;28;20041;-58
2023/11/02 01:45:56;;;;;;;5.35;2.47;;;;;;;-145.87;100.00;54973.53;2083138;28;20050;-60
2023/11/02 01:47:24;;;;;;;5.30;2.88;;;;;;;-145.87;100.00;54973.53;2090683;28;20057;-59
2023/11/02 01:48:30;;;;;;;3.95;2.45;;;;;;;-145.87;100.00;54973.53;2074635;28;20060;-58
2023/11/02 01:49:51;;;;;;;5.32;2.70;;;;;;;-145.87;100.00;54973.53;2090625;28;20036;-58
2023/11/02 01:50:55;;;;;;;5.97;2.60;;;;;;;-145.87;100.00;54973.53;2081943;28;20037;-59
2023/11/02 01:52:18;;;;;;;4.88;2.88;;;;;;;-145.87;100.00;54973.53;2083608;28;20481;-58
2023/11/02 01:53:36;;;;;;;7.22;2.80;;;;;;;-145.87;100.00;54973.53;2089957;28;20414;-59
2023/11/02 01:54:49;;;;;;;5.35;2.72;;;;;;;-145.87;100.00;54973.53;2084803;28;20064;-59
2023/11/02 01:56:23;;;;;;;6.75;2.90;;;;;;;-145.87;100.00;54973.53;2084652;28;20064;-58
2023/11/02 01:57:38;;;;;;;3.83;2.63;;;;;;;-145.87;100.00;54973.53;2078642;28;20052;-58
2023/11/02 01:58:51;;;;;;;9.07;2.80;;;;;;;-145.87;100.00;54973.53;2083780;28;20049;-59
2023/11/02 02:00:04;;;;;;;4.60;2.78;;;;;;;-145.87;100.00;54973.53;2089652;28;20053;-59
2023/11/02 02:01:41;;;;;;;4.75;2.60;;;;;;;-145.87;100.00;54973.53;2083774;28;20049;-58
2023/11/02 02:02:51;;;;;;;5.38;2.67;;;;;;;-145.87;100.00;54973.53;2088257;28;20485;-59
2023/11/02 02:03:59;;;;;;;5.38;2.83;;;;;;;-145.87;100.00;54973.53;2090645;28;20099;-59
2023/11/02 02:05:10;;;;;;;5.57;2.58;;;;;;;-145.87;100.00;54973.53;2090687;28;20052;-58
2023/11/02 02:06:31;;;;;;;5.53;2.70;;;;;;;-145.87;100.00;54973.53;2090012;28;20508;-58
2023/11/02 02:07:42;;;;;;;5.90;2.78;;;;;;;-145.87;100.00;54973.53;2084869;28;20049;-59
2023/11/02 02:09:02;;;;;;;4.63;2.53;;;;;;;-145.87;100.00;54973.53;2090044;28;20053;-59
2023/11/02 02:10:07;;;;;;;5.90;2.65;;;;;;;-145.87;100.00;54973.53;2089272;28;20393;-59
2023/11/02 02:11:18;;;;;;;5.95;3.00;;;;;;;-145.87;100.00;54973.53;2081469;28;20049;-59
2023/11/02 02:12:44;;;;;;;5.60;2.95;;;;;;;-145.87;100.00;54973.53;2083930;28;20057;-59
2023/11/02 02:14:04;;;;;;;5.40;3.00;;;;;;;-145.87;100.00;54973.53;2087192;28;20048;-58
2023/11/02 02:15:13;;;;;;;4.78;3.03;;;;;;;-145.87;100.00;54973.53;2091002;28;20071;-59
2023/11/02 02:16:35;;;;;;;7.15;2.85;;;;;;;-145.87;100.00;54973.53;2081842;28;20045;-59
2023/11/02 02:17:54;;;;;;;5.95;2.80;;;;;;;-145.87;100.00;54973.53;2080197;28;20040;-59
2023/11/02 02:19:01;;;;;;;5.57;2.65;;;;;;;-145.87;100.00;54973.53;2089948;28;20447;-59
2023/11/02 02:20:09;;;;;;;4.35;2.80;;;;;;;-145.87;100.00;54973.53;2081408;28;20056;-59
2023/11/02 02:21:17;;;;;;;9.95;3.17;;;;;;;-145.87;100.00;54973.53;2075363;28;20064;-58
2023/11/02 02:22:24;;;;;;;9.73;2.65;;;;;;;-145.87;100.00;54973.53;2082546;28;20487;-59
2023/11/02 02:23:37;;;;;;;4.18;2.90;;;;;;;-145.87;100.00;54973.53;2082166;28;20540;-58
2023/11/02 02:24:57;;;;;;;5.07;3.38;;;;;;;-145.87;100.00;54973.53;2082920;28;20056;-59
2023/11/02 02:26:17;;;;;;;5.63;3.40;;;;;;;-145.87;100.00;54973.53;2089893;28;20045;-58
2023/11/02 02:27:36;;;;;;;6.00;3.40;;;;;;;-145.87;100.00;54973.53;2089756;28;20056;-59
2023/11/02 02:28:55;;;;;;;;;;;;;;;-145.87;100.00;54973.53;2090673;28;20045;-59
2023/11/02 02:30:05;;;;;;;5.30;3.17;;;;;;;-145.87;100.00;54973.53;2089885;28;19912;-58
2023/11/02 02:31:25;;;;;;;7.20;3.38;;;;;;;-145.87;100.00;54973.53;2082502;28;20045;-58
2023/11/02 02:33:01;;;;;;;5.00;3.28;;;;;;;-145.87;100.00;54973.53;2089777;28;20049;-59
2023/11/02 02:34:24;;;;;;;5.43;2.97;;;;;;;-145.87;100.00;54973.53;2090453;28;20041;-59
2023/11/02 02:35:51;;;;;;;7.97;3.00;;;;;;;-145.87;100.00;54973.53;2090695;28;20048;-59
2023/11/02 02:37:15;;;;;;;6.93;3.22;;;;;;;-145.87;100.00;54973.53;2090014;28;20055;-59
2023/11/02 02:38:19;;;;;;;5.15;3.30;;;;;;;-145.87;100.00;54973.53;2093115;28;20052;-58
2023/11/02 02:39:23;;;;;;;5.95;3.35;;;;;;;-145.87;100.00;54973.53;2097854;28;20044;-58
2023/11/02 02:40:31;;;;;;;5.32;2.97;;;;;;;-145.87;100.00;54973.53;2089506;28;20052;-59
2023/11/02 02:41:36;;;;;;;10.13;3.72;;;;;;;-145.87;100.00;54973.53;2089729;28;20433;-59
2023/11/02 02:42:38;;;;;;;5.60;3.90;;;;;;;-145.87;100.00;54973.53;2082550;28;20049;-59
2023/11/02 02:43:39;;;;;;;6.10;3.78;;;;;;;-145.87;100.00;54973.53;2081164;28;20061;-59
2023/11/02 02:44:40;;;;;;;6.93;3.72;;;;;;;-145.87;100.00;54973.53;2081223;28;20049;-59
2023/11/02 02:45:42;;;;;;;6.90;3.97;;;;;;;-145.87;100.00;54973.53;2073529;28;20045;-57
2023/11/02 02:46:43;;;;;;;6.82;3.65;;;;;;;-145.87;100.00;54973.53;2081503;28;20056;-59
2023/11/02 02:47:44;;;;;;;5.85;4.10;;;;;;;-145.87;100.00;54973.53;2081779;28;20493;-59
2023/11/02 02:48:45;;;;;;;5.93;3.83;;;;;;;-145.87;100.00;54973.53;2081750;28;20046;-59
2023/11/02 02:49:51;;;;;;;4.97;3.60;;;;;;;-145.87;100.00;54973.53;2073532;28;20045;-59
2023/11/02 02:50:57;;;;;;;6.53;3.50;;;;;;;-145.87;100.00;54973.53;2074317;28;20090;-59
2023/11/02 02:51:58;;;;;;;5.07;3.60;;;;;;;-145.87;100.00;54973.53;2075623;28;20057;-59
2023/11/02 02:53:00;;;;;;;5.45;3.35;;;;;;;-145.87;100.00;54973.53;2089893;28;20424;-58
2023/11/02 02:54:04;;;;;;;6.82;3.58;;;;;;;-145.87;100.00;54973.53;2090214;28;20045;-58
2023/11/02 02:55:08;;;;;;;5.65;3.00;;;;;;;-145.87;100.00;54973.53;2089791;28;20492;-58
2023/11/02 02:56:10;;;;;;;4.80;3.03;;;;;;;-145.87;100.00;54973.53;2081800;28;20470;-58
2023/11/02 02:57:12;;;;;;;8.02;3.40;;;;;;;-145.87;100.00;54973.53;2081604;28;20061;-58
2023/11/02 02:58:13;;;;;;;4.43;2.72;;;;;;;-145.87;100.00;54973.53;2089320;28;20093;-58
2023/11/02 02:59:17;;;;;;;4.35;2.85;;;;;;;-145.87;100.00;54973.53;2089885;28;20473;-58
2023/11/02 03:00:18;;;;;;;8.20;3.20;;;;;;;-145.87;100.00;54973.53;2089415;28;20421;-59
2023/11/02 03:01:20;;;;;;;5.90;2.80;;;;;;;-145.87;100.00;54973.53;2081713;28;20045;-59
2023/11/02 03:02:23;;;;;;;6.55;3.20;;;;;;;-145.87;100.00;54973.53;2073379;28;20061;-59
2023/11/02 03:03:24;;;;;;;4.60;2.95;;;;;;;-145.87;100.00;54973.53;2082229;28;20080;-59
2023/11/02 03:04:25;;;;;;;7.63;3.40;;;;;;;-145.87;100.00;54973.53;2089720;28;20453;-59
2023/11/02 03:05:26;;;;;;;4.60;2.80;;;;;;;-145.87;100.00;54973.53;2081393;28;20045;-58
2023/11/02 03:06:28;;;;;;;5.88;2.90;;;;;;;-145.87;100.00;54973.53;2073533;28;20054;-58
2023/11/02 03:07:30;;;;;;;7.20;2.90;;;;;;;-145.87;100.00;54973.53;2072991;28;20053;-59
2023/11/02 03:08:32;;;;;;;5.13;3.17;;;;;;;-145.87;100.00;54973.53;2073656;28;20046;-59
2023/11/02 03:09:34;;;;;;;5.90;2.42;;;;;;;-145.87;100.00;54973.53;2073370;28;20046;-59
2023/11/02 03:10:36;;;;;;;3.90;2.00;;;;;;;-145.87;100.00;54973.53;2073654;28;20046;-59
2023/11/02 03:11:37;;;;;;;4.57;2.65;;;;;;;-145.87;100.00;54973.53;2073389;28;20049;-59
2023/11/02 03:12:40;;;;;;;4.50;2.92;;;;;;;-145.87;100.00;54973.53;2081684;28;20037;-59
2023/11/02 03:13:42;;;;;;;5.18;2.83;;;;;;;-145.87;100.00;54973.53;2089490;28;20044;-59
2023/11/02 03:14:43;;;;;;;3.83;2.13;;;;;;;-145.87;100.00;54973.53;2089889;28;20045;-58
2023/11/02 03:15:44;;;;;;;4.80;2.78;;;;;;;-145.87;100.00;54973.53;2089576;28;20045;-59
2023/11/02 03:16:46;;;;;;;7.10;3.10;;;;;;;-145.87;100.00;54973.53;2081828;28;20049;-58
2023/11/02 03:18:00;;;;;;;5.35;2.50;;;;;;;-145.87;100.00;54973.53;2089634;28;20429;-59
2023/11/02 03:19:04;;;;;;;4.50;2.65;;;;;;;-145.87;100.00;54973.53;2089672;28;20500;-58
2023/11/02 03:20:10;;;;;;;6.75;3.30;;;;;;;-145.87;100.00;54973.53;2081494;28;20072;-59
2023/11/02 03:21:11;;;;;;;6.28;3.28;;;;;;;-145.87;100.00;54973.53;2089677;28;20045;-59
2023/11/02 03:22:20;;;;;;;4.43;2.70;;;;;;;-145.87;100.00;54973.53;2090673;28;20072;-58
2023/11/02 03:23:35;;;;;;;4.63;3.05;;;;;;;-145.87;100.00;54973.53;2090158;28;20041;-59
2023/11/02 03:24:39;;;;;;;3.80;2.60;;;;;;;-145.87;100.00;54973.53;2081323;28;20056;-59
2023/11/02 03:25:51;;;;;;;5.93;2.83;;;;;;;-145.87;100.00;54973.53;2082149;28;20038;-59
2023/11/02 03:26:59;;;;;;;4.47;2.90;;;;;;;-145.87;100.00;54973.53;2081569;28;20575;-58
2023/11/02 03:28:09;;;;;;;5.32;3.15;;;;;;;-145.87;100.00;54973.53;2082535;28;20048;-58
2023/11/02 03:29:26;;;;;;;5.53;2.60;;;;;;;-145.87;100.00;54973.53;2089873;28;20413;-58
2023/11/02 03:30:57;;;;;;;5.72;2.60;;;;;;;-145.87;100.00;54973.53;2083368;28;20046;-58
2023/11/02 03:32:02;;;;;;;5.53;2.40;;;;;;;-145.87;100.00;54973.53;2089276;28;20053;-59
2023/11/02 03:33:12;;;;;;;5.15;2.60;;;;;;;-145.87;100.00;54973.53;2090363;28;20049;-59
2023/11/02 03:34:47;;;;;;;5.18;2.90;;;;;;;-145.87;100.00;54973.53;2089150;28;20075;-58
2023/11/02 03:35:54;;;;;;;3.92;2.63;;;;;;;-145.87;100.00;54973.53;2086129;28;20052;-59
2023/11/02 03:37:23;;;;;;;5.28;2.20;;;;;;;-145.87;100.00;54973.53;2085204;28;20060;-59
2023/11/02 03:38:53;;;;;;;4.68;2.85;;;;;;;-145.87;100.00;54973.53;2083312;28;20061;-61
2023/11/02 03:40:22;;;;;;;4.90;2.30;;;;;;;-145.87;100.00;54973.53;2092954;28;20468;-59
2023/11/02 03:41:50;;;;;;;6.00;2.60;;;;;;;-145.87;100.00;54973.53;2093350;28;20052;-58
2023/11/02 03:43:30;;;;;;;3.28;2.20;;;;;;;-145.87;100.00;54973.53;2094593;28;20052;-59
2023/11/02 03:44:56;;;;;;;3.55;2.30;;;;;;;-145.87;100.00;54973.53;2090750;28;20041;-59
2023/11/02 03:46:17;;;;;;;5.05;1.98;;;;;;;-145.87;100.00;54973.53;2085957;28;20055;-59
2023/11/02 03:47:48;;;;;;;4.50;1.80;;;;;;;-145.87;100.00;54973.53;2085622;28;20041;-58
2023/11/02 03:48:58;;;;;;;3.90;2.15;;;;;;;-145.87;100.00;54973.53;2082988;28;20037;-58
2023/11/02 03:50:05;;;;;;;4.60;2.33;;;;;;;-145.87;100.00;54973.53;2079785;28;20494;-59
2023/11/02 03:51:13;;;;;;;3.95;2.30;;;;;;;-145.87;100.00;54973.53;2092299;28;20385;-59
2023/11/02 03:52:36;;;;;;;3.92;1.83;;;;;;;-145.87;100.00;54973.53;2092908;28;20053;-59
2023/11/02 03:53:44;;;;;;;3.05;1.80;;;;;;;-145.87;100.00;54973.53;2092341;28;20036;-59
2023/11/02 03:55:00;;;;;;;3.80;2.30;;;;;;;-145.87;100.00;54973.53;2091613;28;20049;-58
2023/11/02 03:56:11;;;;;;;4.70;2.08;;;;;;;-145.87;100.00;54973.53;2092001;28;20044;-58
2023/11/02 03:57:21;;;;;;;3.20;1.80;;;;;;;-145.87;100.00;54973.53;2092112;28;20056;-58
2023/11/02 03:58:36;;;;;;;;;;;;;;;-145.87;100.00;54973.53;2092047;28;20040;-58
2023/11/02 04:00:02;;;;;;;4.32;1.90;;;;;;;-145.87;100.00;54973.53;2091559;28;19924;-58
2023/11/02 04:01:16;;;;;;;2.90;1.73;;;;;;;-145.87;100.00;54973.53;2091715;28;20052;-58
2023/11/02 04:02:31;;;;;;;2.38;1.50;;;;;;;-145.87;100.00;54973.53;2091053;28;20393;-58
2023/11/02 04:03:32;;;;;;;3.22;1.73;;;;;;;-145.87;100.00;54973.53;2090502;28;20506;-58
2023/11/02 04:04:39;;;;;;;6.30;2.17;;;;;;;-145.87;100.00;54973.53;2082828;28;20041;-58
2023/11/02 04:05:43;;;;;;;2.03;1.40;;;;;;;-145.87;100.00;54973.53;2084186;28;20041;-58
2023/11/02 04:07:19;;;;;;;3.63;1.85;;;;;;;-145.87;100.00;54973.53;2091799;28;20041;-58
2023/11/02 04:08:21;;;;;;;3.03;1.48;;;;;;;-145.87;100.00;54973.53;2087522;28;20053;-58
2023/11/02 04:09:23;;;;;;;2.92;1.55;;;;;;;-145.87;100.00;54973.53;2091015;28;20049;-58
2023/11/02 04:10:26;;;;;;;2.42;1.40;;;;;;;-145.87;100.00;54973.53;2082711;28;20049;-59
2023/11/02 04:11:29;;;;;;;3.00;1.27;;;;;;;-145.87;100.00;54973.53;2082281;28;20060;-58
2023/11/02 04:12:31;;;;;;;3.17;1.42;;;;;;;-145.87;100.00;54973.53;2091485;28;20083;-58
2023/11/02 04:13:39;;;;;;;3.00;1.60;;;;;;;-145.87;100.00;54973.53;2091551;28;20461;-58
2023/11/02 04:14:40;;;;;;;2.73;1.50;;;;;;;-145.87;100.00;54973.53;2091583;28;20389;-58
2023/11/02 04:15:42;;;;;;;2.65;1.40;;;;;;;-145.87;100.00;54973.53;2090611;28;20290;-58
2023/11/02 04:16:43;;;;;;;4.35;1.50;;;;;;;-145.87;100.00;54973.53;2090940;28;20048;-58
2023/11/02 04:17:44;;;;;;;3.90;1.50;;;;;;;-145.87;100.00;54973.53;2091874;28;20056;-58
2023/11/02 04:18:45;;;;;;;3.17;1.67;;;;;;;-145.87;100.00;54973.53;2091595;28;20040;-58
2023/11/02 04:19:46;;;;;;;4.43;1.50;;;;;;;-145.87;100.00;54973.53;2091525;28;20404;-58
2023/11/02 04:20:51;;;;;;;4.28;1.50;;;;;;;-145.87;100.00;54973.53;2090511;28;20064;-58
2023/11/02 04:21:52;;;;;;;3.13;1.27;;;;;;;-145.87;100.00;54973.53;2090743;28;20063;-59
2023/11/02 04:22:53;;;;;;;3.00;1.20;;;;;;;-145.87;100.00;54973.53;2090715;28;20044;-58
2023/11/02 04:23:55;;;;;;;4.60;1.38;;;;;;;-145.87;100.00;54973.53;2090081;28;20064;-58
2023/11/02 04:24:56;;;;;;;2.58;1.65;;;;;;;-145.87;100.00;54973.53;2091099;28;20497;-59
2023/11/02 04:25:57;;;;;;;4.95;1.55;;;;;;;-145.87;100.00;54973.53;2091549;28;20048;-58
2023/11/02 04:26:58;;;;;;;4.45;1.60;;;;;;;-145.87;100.00;54973.53;2091880;28;20060;-58
2023/11/02 04:27:59;;;;;;;2.60;1.10;;;;;;;-145.87;100.00;54973.53;2091523;28;20040;-58
2023/11/02 04:29:00;;;;;;;2.05;1.30;;;;;;;-145.87;100.00;54973.53;2091803;28;20053;-59
2023/11/02 04:30:01;;;;;;;3.00;1.52;;;;;;;-145.87;100.00;54973.53;2091017;28;20052;-59
2023/11/02 04:31:02;;;;;;;3.38;1.30;;;;;;;-145.87;100.00;54973.53;2090479;28;20057;-58
2023/11/02 04:32:04;;;;;;;2.17;1.33;;;;;;;-145.87;100.00;54973.53;2091621;28;20056;-58
2023/11/02 04:33:05;;;;;;;3.30;1.17;;;;;;;-145.87;100.00;54973.53;2091505;28;20044;-58
2023/11/02 04:34:08;;;;;;;3.55;1.30;;;;;;;-145.87;100.00;54973.53;2082203;28;20054;-58
2023/11/02 04:35:10;;;;;;;2.58;1.17;;;;;;;-145.87;100.00;54973.53;2074954;28;20045;-58
2023/11/02 04:36:11;;;;;;;2.55;1.10;;;;;;;-145.87;100.00;54973.53;2090938;28;20045;-58
2023/11/02 04:37:15;;;;;;;2.33;1.13;;;;;;;-145.87;100.00;54973.53;2091264;28;20045;-58
2023/11/02 04:38:17;;;;;;;2.78;1.30;;;;;;;-145.87;100.00;54973.53;2091484;28;20033;-58
2023/11/02 04:39:18;;;;;;;3.85;1.25;;;;;;;-145.87;100.00;54973.53;2090489;28;20052;-58
2023/11/02 04:40:19;;;;;;;2.55;1.00;;;;;;;-145.87;100.00;54973.53;2090561;28;20057;-58
2023/11/02 04:41:20;;;;;;;2.65;1.30;;;;;;;-145.87;100.00;54973.53;2091105;28;20045;-58
2023/11/02 04:42:22;;;;;;;2.45;1.20;;;;;;;-145.87;100.00;54973.53;2091235;28;20053;-58
2023/11/02 04:43:23;;;;;;;2.42;1.25;;;;;;;-145.87;100.00;54973.53;2091094;28;20045;-58
2023/11/02 04:44:24;;;;;;;2.58;1.10;;;;;;;-145.87;100.00;54973.53;2082283;28;20060;-59
2023/11/02 04:45:26;;;;;;;4.00;1.33;;;;;;;-145.87;100.00;54973.53;2081869;28;20065;-59
2023/11/02 04:46:27;;;;;;;3.55;1.83;;;;;;;-145.87;100.00;54973.53;2090562;28;20052;-59
2023/11/02 04:47:29;;;;;;;2.22;1.10;;;;;;;-145.87;100.00;54973.53;2090776;28;20504;-58
2023/11/02 04:48:30;;;;;;;2.10;0.93;;;;;;;-145.87;100.00;54973.53;2090751;28;20049;-57
2023/11/02 04:49:36;;;;;;;1.98;1.00;;;;;;;-145.87;100.00;54973.53;2091392;28;20044;-58
2023/11/02 04:50:37;;;;;;;2.22;1.02;;;;;;;-145.87;100.00;54973.53;2091315;28;20473;-60
2023/11/02 04:51:39;;;;;;;3.03;1.00;;;;;;;-145.87;100.00;54973.53;2091242;28;20045;-58
2023/11/02 04:52:40;;;;;;;2.58;1.60;;;;;;;-145.87;100.00;54973.53;2081994;28;20116;-58
2023/11/02 04:53:41;;;;;;;2.15;1.08;;;;;;;-145.87;100.00;54973.53;2082126;28;20064;-58
2023/11/02 04:54:43;;;;;;;3.50;1.02;;;;;;;-145.87;100.00;54973.53;2090871;28;20045;-58
2023/11/02 04:55:44;;;;;;;1.80;1.15;;;;;;;-145.87;100.00;54973.53;2090821;28;20071;-58
2023/11/02 04:56:45;;;;;;;2.28;1.15;;;;;;;-145.87;100.00;54973.53;2090865;28;20037;-58
2023/11/02 04:57:46;;;;;;;2.55;1.20;;;;;;;-145.87;100.00;54973.53;2090898;28;20052;-58
2023/11/02 04:58:47;;;;;;;2.85;0.93;;;;;;;-145.87;100.00;54973.53;2091006;28;20041;-60
2023/11/02 04:59:48;;;;;;;2.05;0.80;;;;;;;-145.87;100.00;54973.53;2090927;28;20120;-58
2023/11/02 05:00:50;;;;;;;1.83;0.90;;;;;;;-145.87;100.00;54973.53;2091414;28;20041;-59
2023/11/02 05:01:51;;;;;;;3.05;1.10;;;;;;;-145.87;100.00;54973.53;2090978;28;20405;-58
2023/11/02 05:02:52;;;;;;;2.33;1.05;;;;;;;-145.87;100.00;54973.53;2090135;28;20041;-58
2023/11/02 05:03:55;;;;;;;1.90;0.90;;;;;;;-145.87;100.00;54973.53;2090574;28;20128;-58
2023/11/02 05:04:57;;;;;;;4.05;1.38;;;;;;;-145.87;100.00;54973.53;2091177;28;20045;-57
2023/11/02 05:05:58;;;;;;;2.22;1.00;;;;;;;-145.87;100.00;54973.53;2091550;28;20469;-58